Time;durP1;ratioP1;P1;durP2;ratioP2;P2;SDS_P1;SDS_P2;PMS_P1;PMS_P2;Temp;Humidity;BMP_temperature;BMP_pressure;BME280_temperature;BME280_humidity;BME280_pressure;Samples;Min_cycle;Max_cycle;Signal;HPM_P1;HPM_P2
2023/04/04 00:01:00;;;;;;;5.37;3.10;;;1.00;99.20;;;;;;10166880;29;20235;-83
2023/04/04 00:06:03;;;;;;;9.37;3.77;;;0.70;99.90;;;;;;10167080;29;20638;-83
2023/04/04 00:11:06;;;;;;;7.23;3.30;;;0.50;99.90;;;;;;10167224;29;20376;-83
2023/04/04 00:16:09;;;;;;;6.27;3.20;;;0.70;99.90;;;;;;10167467;29;20649;-83
2023/04/04 00:21:11;;;;;;;5.47;2.97;;;1.30;99.90;;;;;;10167678;29;20259;-83
2023/04/04 00:26:14;;;;;;;8.27;3.47;;;1.30;99.90;;;;;;10167336;29;20240;-83
2023/04/04 00:31:17;;;;;;;7.30;3.27;;;1.60;99.90;;;;;;10140471;29;20255;-83
2023/04/04 00:36:19;;;;;;;5.97;3.27;;;1.50;99.90;;;;;;10126678;29;20232;-83
2023/04/04 00:41:22;;;;;;;5.67;3.57;;;1.90;99.90;;;;;;10128352;29;20748;-83
2023/04/04 00:46:28;;;;;;;6.40;3.43;;;1.80;99.90;;;;;;10156003;29;20239;-83
2023/04/04 00:51:31;;;;;;;10.80;4.83;;;1.60;99.90;;;;;;10156808;29;20253;-83
2023/04/04 00:56:36;;;;;;;12.43;6.10;;;1.90;99.90;;;;;;10141165;29;20897;-83
2023/04/04 01:01:39;;;;;;;30.73;11.13;;;2.00;99.90;;;;;;10165748;29;20270;-83
2023/04/04 01:06:42;;;;;;;19.07;8.37;;;2.10;99.90;;;;;;10164694;29;20273;-83
2023/04/04 01:11:45;;;;;;;8.43;4.53;;;2.20;99.90;;;;;;10166561;29;20255;-83
2023/04/04 01:16:51;;;;;;;10.33;4.83;;;2.20;99.90;;;;;;10149227;29;20308;-83
2023/04/04 01:22:00;;;;;;;8.97;4.30;;;2.20;99.30;;;;;;10165160;29;20241;-83
2023/04/04 01:27:02;;;;;;;9.10;4.63;;;2.10;97.50;;;;;;10182205;29;20243;-83
2023/04/04 01:32:32;;;;;;;10.07;3.17;;;2.40;97.60;;;;;;10203978;29;20687;-84
2023/04/04 01:37:41;;;;;;;5.17;2.37;;;2.30;99.40;;;;;;10165833;29;20228;-83
2023/04/04 01:42:45;;;;;;;4.70;2.53;;;2.60;99.90;;;;;;10170156;29;20295;-83
2023/04/04 01:47:48;;;;;;;4.90;3.30;;;2.30;97.30;;;;;;10172782;29;20257;-83
2023/04/04 01:52:54;;;;;;;5.57;2.90;;;2.50;95.50;;;;;;10171831;29;20268;-82
2023/04/04 01:57:57;;;;;;;4.07;2.23;;;2.60;97.30;;;;;;10171202;29;20764;-83
2023/04/04 02:03:01;;;;;;;5.47;3.00;;;2.40;99.50;;;;;;10170660;29;20243;-82
2023/04/04 02:08:04;;;;;;;5.20;2.87;;;2.50;96.10;;;;;;10170109;29;20255;-83
2023/04/04 02:13:17;;;;;;;5.50;3.47;;;2.50;98.40;;;;;;10168850;29;20264;-83
2023/04/04 02:18:22;;;;;;;7.60;3.90;;;2.40;96.10;;;;;;10170607;29;20294;-82
2023/04/04 02:23:24;;;;;;;7.17;3.20;;;2.60;98.40;;;;;;10154580;29;20311;-83
2023/04/04 02:28:27;;;;;;;4.27;3.00;;;2.70;95.70;;;;;;10169779;29;20752;-82
2023/04/04 02:33:30;;;;;;;5.17;2.73;;;2.70;95.90;;;;;;10178151;29;20231;-83
2023/04/04 02:38:37;;;;;;;6.40;2.70;;;2.50;93.30;;;;;;10192692;29;20241;-83
2023/04/04 02:43:40;;;;;;;5.40;2.67;;;2.60;95.50;;;;;;10169541;29;20251;-83
2023/04/04 02:48:44;;;;;;;5.40;2.70;;;2.90;95.70;;;;;;10168992;29;20268;-83
2023/04/04 02:53:48;;;;;;;5.47;2.73;;;2.70;96.60;;;;;;10168604;29;20287;-83
2023/04/04 02:58:59;;;;;;;3.83;2.53;;;2.80;91.00;;;;;;10168603;29;20298;-83
2023/04/04 03:04:03;;;;;;;4.80;2.30;;;2.90;92.70;;;;;;10167587;29;20307;-83
2023/04/04 03:09:08;;;;;;;4.87;2.40;;;3.00;96.20;;;;;;10168541;29;20292;-83
2023/04/04 03:14:10;;;;;;;4.73;3.00;;;3.10;95.60;;;;;;10141400;29;20277;-83
2023/04/04 03:19:15;;;;;;;3.30;2.20;;;3.00;94.70;;;;;;10168483;29;20293;-83
2023/04/04 03:24:17;;;;;;;3.03;1.87;;;3.00;93.30;;;;;;10167909;29;20305;-82
2023/04/04 03:29:21;;;;;;;3.53;1.90;;;2.70;93.10;;;;;;10167691;29;20269;-83
2023/04/04 03:34:26;;;;;;;4.63;2.20;;;2.80;92.40;;;;;;10167443;29;20245;-83
2023/04/04 03:39:29;;;;;;;3.27;2.13;;;2.50;93.70;;;;;;10166955;29;20248;-83
2023/04/04 03:44:32;;;;;;;3.67;2.30;;;2.80;93.80;;;;;;10166904;29;20302;-83
2023/04/04 03:49:35;;;;;;;7.07;2.23;;;2.70;92.20;;;;;;10167368;29;20779;-83
2023/04/04 03:54:38;;;;;;;3.37;2.30;;;2.50;93.90;;;;;;10167806;29;20331;-83
2023/04/04 03:59:41;;;;;;;3.77;2.30;;;2.40;94.10;;;;;;10166554;29;20255;-83
2023/04/04 04:04:44;;;;;;;2.60;1.90;;;2.20;93.30;;;;;;10166523;29;20318;-83
2023/04/04 04:09:47;;;;;;;3.90;2.53;;;2.00;94.80;;;;;;10166603;29;20252;-83
2023/04/04 04:14:49;;;;;;;3.77;1.97;;;2.10;94.10;;;;;;10165992;29;20274;-83
2023/04/04 04:19:52;;;;;;;4.67;2.10;;;2.00;98.50;;;;;;10167249;29;20329;-83
2023/04/04 04:24:55;;;;;;;5.60;2.33;;;2.10;99.40;;;;;;10172500;29;20598;-83
2023/04/04 04:29:57;;;;;;;2.73;1.70;;;1.80;99.90;;;;;;10165882;29;20262;-83
2023/04/04 04:35:00;;;;;;;7.23;2.73;;;2.00;99.90;;;;;;10167122;29;20291;-83
2023/04/04 04:40:07;;;;;;;3.37;2.10;;;1.70;99.90;;;;;;10165625;29;20237;-83
2023/04/04 04:45:20;;;;;;;6.00;2.70;;;2.00;99.90;;;;;;10165136;29;20324;-83
2023/04/04 04:50:30;;;;;;;4.93;2.43;;;2.20;99.90;;;;;;10165572;29;20340;-82
2023/04/04 04:55:33;;;;;;;6.63;2.90;;;2.20;99.90;;;;;;10165001;29;20677;-83
2023/04/04 05:00:43;;;;;;;6.53;3.20;;;2.20;99.90;;;;;;10165629;29;20241;-84
2023/04/04 05:05:46;;;;;;;10.07;6.57;;;2.10;99.90;;;;;;10162531;29;20235;-83
2023/04/04 05:10:50;;;;;;;4.20;3.27;;;2.20;99.90;;;;;;10165119;29;20259;-83
2023/04/04 05:15:54;;;;;;;4.33;2.73;;;2.70;99.90;;;;;;10167207;29;20322;-83
2023/04/04 05:20:57;;;;;;;4.20;2.30;;;2.90;99.90;;;;;;10166854;29;20285;-82
2023/04/04 05:26:03;;;;;;;4.47;2.87;;;2.90;99.90;;;;;;10171011;29;20577;-82
2023/04/04 05:31:09;;;;;;;12.23;4.17;;;3.00;99.90;;;;;;10168666;29;20267;-82
2023/04/04 05:36:12;;;;;;;7.20;2.90;;;1.90;99.90;;;;;;10171920;29;20314;-81
2023/04/04 05:41:24;;;;;;;5.67;2.63;;;1.80;99.90;;;;;;10169845;29;20259;-83
2023/04/04 05:46:32;;;;;;;4.63;1.93;;;1.80;99.90;;;;;;10173833;29;20239;-96
2023/04/04 05:51:35;;;;;;;6.70;2.93;;;2.70;99.90;;;;;;10180810;29;20283;-95
2023/04/04 05:56:56;;;;;;;4.53;2.50;;;4.00;99.90;;;;;;10173842;29;20198;-95
2023/04/04 06:02:12;;;;;;;10.33;3.50;;;3.90;99.00;;;;;;10174839;29;20212;-95
2023/04/04 06:07:20;;;;;;;8.47;3.43;;;3.80;98.10;;;;;;10225958;29;20188;-96
2023/04/04 06:12:24;;;;;;;6.77;3.57;;;3.40;98.20;;;;;;10200117;29;20229;-96
2023/04/04 06:17:28;;;;;;;8.00;3.47;;;3.50;98.60;;;;;;10202839;29;20366;-96
2023/04/04 06:22:30;;;;;;;8.80;4.37;;;3.30;98.00;;;;;;10207394;29;20212;-96
2023/04/04 06:27:33;;;;;;;10.30;4.00;;;3.00;98.40;;;;;;10156966;29;20216;-96
2023/04/04 06:32:37;;;;;;;6.93;2.97;;;3.00;98.30;;;;;;10172599;29;20261;-95
2023/04/04 06:37:41;;;;;;;7.10;3.00;;;3.00;98.90;;;;;;10177407;29;20209;-96
2023/04/04 06:42:50;;;;;;;3.43;2.30;;;3.30;99.10;;;;;;10192887;29;20211;-96
2023/04/04 06:47:55;;;;;;;5.93;2.57;;;3.60;99.90;;;;;;10197191;29;20207;-95
2023/04/04 06:53:00;;;;;;;9.83;3.43;;;4.00;98.90;;;;;;10200145;29;20227;-94
2023/04/04 06:58:04;;;;;;;5.97;3.20;;;4.00;92.60;;;;;;10215446;29;20270;-96
2023/04/04 07:03:07;;;;;;;9.13;2.37;;;3.70;93.30;;;;;;10191784;29;20263;-95
2023/04/04 07:08:10;;;;;;;6.53;2.50;;;3.80;92.00;;;;;;10182591;29;20211;-96
2023/04/04 07:13:13;;;;;;;3.43;1.70;;;4.00;90.30;;;;;;10187521;29;20235;-94
2023/04/04 07:18:15;;;;;;;8.60;1.43;;;4.20;88.40;;;;;;10201545;29;20248;-96
2023/04/04 07:23:18;;;;;;;2.40;1.73;;;4.10;83.00;;;;;;10204830;29;20208;-96
2023/04/04 07:28:21;;;;;;;4.80;1.50;;;3.80;73.70;;;;;;10207706;29;20185;-96
2023/04/04 07:33:23;;;;;;;3.30;1.80;;;3.60;84.30;;;;;;10203795;29;20259;-96
2023/04/04 07:38:26;;;;;;;2.17;1.90;;;3.70;72.50;;;;;;10198129;29;20198;-96
2023/04/04 07:43:29;;;;;;;2.77;1.47;;;4.00;73.30;;;;;;10199474;29;20270;-96
2023/04/04 07:48:31;;;;;;;3.73;1.33;;;4.00;67.70;;;;;;10197052;29;20213;-96
2023/04/04 07:53:34;;;;;;;3.23;1.30;;;4.10;68.20;;;;;;10200155;29;20245;-96
2023/04/04 07:58:36;;;;;;;2.90;1.60;;;4.00;71.70;;;;;;10206506;29;20201;-95
2023/04/04 08:03:39;;;;;;;2.30;1.10;;;4.00;69.70;;;;;;10212997;29;20243;-96
2023/04/04 08:08:42;;;;;;;11.63;3.37;;;4.00;65.50;;;;;;10213464;29;20212;-96
2023/04/04 08:13:44;;;;;;;2.47;1.13;;;3.70;67.60;;;;;;10209654;29;20260;-96
2023/04/04 08:18:47;;;;;;;4.93;1.47;;;3.60;65.10;;;;;;10192079;29;20298;-96
2023/04/04 08:23:49;;;;;;;2.30;1.00;;;3.50;54.30;;;;;;10181594;29;20248;-96
2023/04/04 08:28:55;;;;;;;2.03;0.67;;;4.40;52.20;;;;;;10178320;29;20213;-96
2023/04/04 08:34:00;;;;;;;2.33;0.60;;;4.90;58.40;;;;;;10162320;29;20196;-96
2023/04/04 08:39:02;;;;;;;7.80;1.53;;;4.80;48.40;;;;;;10198927;29;20211;-96
2023/04/04 08:44:07;;;;;;;4.03;1.33;;;5.00;62.20;;;;;;10197770;29;20248;-96
2023/04/04 08:49:12;;;;;;;1.97;1.57;;;4.70;55.90;;;;;;10198274;29;20251;-96
2023/04/04 08:54:16;;;;;;;2.53;1.20;;;5.00;61.40;;;;;;10196682;29;20204;-96
2023/04/04 08:59:19;;;;;;;4.70;1.77;;;5.00;49.20;;;;;;10192749;29;20263;-96
2023/04/04 09:04:23;;;;;;;2.53;0.80;;;4.90;49.70;;;;;;10190572;29;20208;-96
2023/04/04 09:09:26;;;;;;;5.50;1.97;;;4.70;48.10;;;;;;10191579;29;20224;-96
2023/04/04 09:14:29;;;;;;;2.10;0.97;;;4.60;45.70;;;;;;10190850;29;20580;-95
2023/04/04 09:19:32;;;;;;;3.00;1.33;;;4.50;45.80;;;;;;10192277;29;20199;-96
2023/04/04 09:24:40;;;;;;;5.27;1.20;;;4.30;46.30;;;;;;10189379;29;20211;-96
2023/04/04 09:29:43;;;;;;;5.20;1.37;;;4.50;46.30;;;;;;10195285;29;20250;-95
2023/04/04 09:34:45;;;;;;;3.60;1.13;;;4.70;45.60;;;;;;10195231;29;20666;-96
2023/04/04 09:39:48;;;;;;;2.80;1.00;;;4.50;41.90;;;;;;10190040;29;20626;-96
2023/04/04 09:44:55;;;;;;;2.30;1.30;;;4.60;43.10;;;;;;10174959;29;20232;-96
2023/04/04 09:49:58;;;;;;;3.27;1.33;;;4.50;40.20;;;;;;10190256;29;20681;-95
2023/04/04 09:55:03;;;;;;;9.37;2.10;;;4.50;40.70;;;;;;10205280;29;20208;-96
2023/04/04 10:00:08;;;;;;;2.77;1.57;;;4.30;41.70;;;;;;10185305;29;20224;-96
2023/04/04 10:05:10;;;;;;;3.73;1.87;;;4.80;56.10;;;;;;10156651;29;20248;-96
2023/04/04 10:10:14;;;;;;;3.63;1.63;;;4.70;46.00;;;;;;10183255;29;20224;-96
2023/04/04 10:15:17;;;;;;;4.47;1.60;;;5.00;44.80;;;;;;10191602;29;20651;-96
2023/04/04 10:20:21;;;;;;;7.03;2.00;;;5.40;50.00;;;;;;10172523;29;20213;-96
2023/04/04 10:25:24;;;;;;;2.63;0.93;;;5.40;36.60;;;;;;10187407;29;20275;-96
2023/04/04 10:30:26;;;;;;;3.63;2.00;;;6.00;65.00;;;;;;10191721;29;20224;-96
2023/04/04 10:35:31;;;;;;;4.00;1.60;;;5.80;35.10;;;;;;10190763;29;20202;-96
2023/04/04 10:40:37;;;;;;;7.63;1.47;;;5.30;37.10;;;;;;10185943;29;20258;-96
2023/04/04 10:45:41;;;;;;;3.30;1.83;;;5.20;42.50;;;;;;10154742;29;20645;-95
2023/04/04 10:50:46;;;;;;;5.63;2.77;;;5.20;41.70;;;;;;10183059;29;20288;-96
2023/04/04 10:55:49;;;;;;;5.47;2.10;;;5.20;44.80;;;;;;10172347;29;20228;-96
2023/04/04 11:00:56;;;;;;;10.93;3.27;;;5.20;41.10;;;;;;10171169;29;20212;-96
2023/04/04 11:06:00;;;;;;;4.63;1.40;;;5.20;40.50;;;;;;10175679;29;20209;-96
2023/04/04 11:11:03;;;;;;;4.30;2.20;;;5.30;55.40;;;;;;10156364;29;20229;-96
2023/04/04 11:16:19;;;;;;;3.33;2.20;;;5.30;45.70;;;;;;10152925;29;20236;-95
2023/04/04 11:21:23;;;;;;;2.80;1.57;;;5.40;43.10;;;;;;10159812;29;20239;-96
2023/04/04 11:26:32;;;;;;;6.43;2.27;;;5.60;43.70;;;;;;10179773;29;20247;-96
2023/04/04 11:31:44;;;;;;;7.17;2.77;;;5.90;49.50;;;;;;10179602;29;20232;-96
2023/04/04 11:36:48;;;;;;;3.33;1.40;;;6.50;42.40;;;;;;10185554;29;20297;-96
2023/04/04 11:42:13;;;;;;;1.70;1.00;;;6.80;43.10;;;;;;10198946;29;20579;-95
2023/04/04 11:47:21;;;;;;;9.87;5.17;;;5.60;28.60;;;;;;10180647;29;20217;-94
2023/04/04 11:52:24;;;;;;;3.93;1.43;;;5.70;32.10;;;;;;10183183;29;20268;-95
2023/04/04 11:57:27;;;;;;;3.40;1.70;;;5.10;36.00;;;;;;10169170;29;20271;-95
2023/04/04 12:02:33;;;;;;;3.33;1.27;;;5.20;38.30;;;;;;10181028;29;20247;-95
2023/04/04 12:07:36;;;;;;;2.83;1.30;;;5.50;38.30;;;;;;10181541;29;20262;-96
2023/04/04 12:12:40;;;;;;;3.23;1.73;;;5.80;45.90;;;;;;10180307;29;20235;-95
2023/04/04 12:17:44;;;;;;;6.07;1.63;;;5.80;37.40;;;;;;10184929;29;20231;-95
2023/04/04 12:22:51;;;;;;;2.63;1.20;;;5.50;38.00;;;;;;10176350;29;20215;-95
2023/04/04 12:27:55;;;;;;;2.07;1.23;;;5.90;38.00;;;;;;10181836;29;20243;-95
2023/04/04 12:32:58;;;;;;;2.60;1.60;;;6.00;39.50;;;;;;10187888;29;20261;-95
2023/04/04 12:38:06;;;;;;;2.40;1.30;;;6.60;47.70;;;;;;10173609;29;20219;-96
2023/04/04 12:43:09;;;;;;;1.67;1.13;;;6.70;33.90;;;;;;10175413;29;20217;-95
2023/04/04 12:48:14;;;;;;;3.17;0.90;;;6.30;33.40;;;;;;10178343;29;20238;-94
2023/04/04 12:53:19;;;;;;;4.90;2.30;;;6.20;32.70;;;;;;10165223;29;20234;-95
2023/04/04 12:58:46;;;;;;;3.43;1.77;;;6.50;32.40;;;;;;10161367;29;20195;-96
2023/04/04 13:03:49;;;;;;;5.30;1.90;;;6.40;41.20;;;;;;10173017;29;20204;-95
2023/04/04 13:08:53;;;;;;;7.20;3.00;;;6.50;35.30;;;;;;10173607;29;20281;-95
2023/04/04 13:14:01;;;;;;;2.70;1.40;;;6.30;33.50;;;;;;10169644;29;20271;-95
2023/04/04 13:19:04;;;;;;;9.53;4.97;;;6.70;32.40;;;;;;10138889;29;20208;-96
2023/04/04 13:24:07;;;;;;;10.90;5.77;;;7.00;36.00;;;;;;10182359;29;20216;-96
2023/04/04 13:29:09;;;;;;;6.60;1.80;;;6.90;30.40;;;;;;10183507;29;20261;-96
2023/04/04 13:34:12;;;;;;;17.13;6.60;;;7.00;31.90;;;;;;10197668;29;20234;-94
2023/04/04 13:39:16;;;;;;;4.10;2.67;;;7.00;28.50;;;;;;10236958;29;20238;-96
2023/04/04 13:44:19;;;;;;;3.60;1.47;;;7.10;27.80;;;;;;10217903;29;20229;-95
2023/04/04 13:49:21;;;;;;;7.80;2.40;;;7.20;41.50;;;;;;10198831;29;20266;-95
2023/04/04 13:54:24;;;;;;;3.90;2.20;;;6.80;28.10;;;;;;10187676;29;20285;-95
2023/04/04 13:59:26;;;;;;;3.67;0.93;;;6.50;28.10;;;;;;10181318;29;20582;-96
2023/04/04 14:04:29;;;;;;;4.20;2.07;;;6.40;29.80;;;;;;10180209;29;20217;-95
2023/04/04 14:09:32;;;;;;;4.67;2.03;;;6.50;29.40;;;;;;10185555;29;20749;-96
2023/04/04 14:14:34;;;;;;;3.47;1.10;;;6.70;31.40;;;;;;10186907;29;20265;-96
2023/04/04 14:19:39;;;;;;;5.37;1.80;;;6.70;26.00;;;;;;10184143;29;20259;-96
2023/04/04 14:24:41;;;;;;;2.33;1.00;;;6.80;27.70;;;;;;10182592;29;20249;-94
2023/04/04 14:29:44;;;;;;;3.10;1.53;;;6.80;24.00;;;;;;10175448;29;20584;-96
2023/04/04 14:34:46;;;;;;;1.87;1.13;;;6.70;23.40;;;;;;10181971;29;20705;-96
2023/04/04 14:39:49;;;;;;;3.63;1.63;;;7.00;34.20;;;;;;10189497;29;20582;-96
2023/04/04 14:44:51;;;;;;;1.73;1.03;;;7.10;27.20;;;;;;10187142;29;20282;-95
2023/04/04 14:49:55;;;;;;;5.33;1.70;;;7.90;29.10;;;;;;10168059;29;20244;-82
2023/04/04 14:54:57;;;;;;;2.83;1.90;;;6.60;25.40;;;;;;10170003;29;20310;-83
2023/04/04 15:00:00;;;;;;;3.07;1.60;;;6.00;25.40;;;;;;10168603;29;20239;-82
2023/04/04 15:05:03;;;;;;;5.50;2.90;;;5.90;24.30;;;;;;10170195;29;20290;-82
2023/04/04 15:10:07;;;;;;;5.13;2.13;;;5.60;25.50;;;;;;10169111;29;20627;-82
2023/04/04 15:15:10;;;;;;;7.90;3.00;;;5.40;25.00;;;;;;10169683;29;20274;-82
2023/04/04 15:20:12;;;;;;;3.53;2.03;;;5.30;26.00;;;;;;10167120;29;20241;-82
2023/04/04 15:25:15;;;;;;;5.17;1.87;;;5.30;27.70;;;;;;10169164;29;20752;-82
2023/04/04 15:30:18;;;;;;;3.50;1.43;;;5.30;25.90;;;;;;10167293;29;20242;-82
2023/04/04 15:35:21;;;;;;;2.63;1.20;;;5.30;29.20;;;;;;10160336;29;20259;-82
2023/04/04 15:40:23;;;;;;;5.23;1.53;;;5.90;34.40;;;;;;10168199;29;20288;-82
2023/04/04 15:45:26;;;;;;;7.70;3.23;;;6.10;31.50;;;;;;10168365;29;20243;-82
2023/04/04 15:50:28;;;;;;;2.63;2.00;;;6.40;31.70;;;;;;10167486;29;20708;-82
2023/04/04 15:55:31;;;;;;;3.97;1.30;;;6.60;35.30;;;;;;10167939;29;20280;-82
2023/04/04 16:00:34;;;;;;;5.50;3.70;;;6.60;38.00;;;;;;10166838;29;20633;-82
2023/04/04 16:05:36;;;;;;;3.17;2.33;;;6.80;35.50;;;;;;10161532;29;20242;-83
2023/04/04 16:10:39;;;;;;;15.47;8.10;;;7.00;30.00;;;;;;10157791;29;20245;-82
2023/04/04 16:15:42;;;;;;;14.07;6.33;;;6.80;26.00;;;;;;10160115;29;20689;-82
2023/04/04 16:20:45;;;;;;;5.93;2.73;;;6.70;27.90;;;;;;10161821;29;20660;-82
2023/04/04 16:25:48;;;;;;;4.00;2.47;;;7.00;30.00;;;;;;10165623;29;20682;-83
2023/04/04 16:30:50;;;;;;;13.77;5.37;;;6.80;28.30;;;;;;10161939;29;20300;-83
2023/04/04 16:35:53;;;;;;;28.93;11.53;;;6.80;27.00;;;;;;10160528;29;20284;-82
2023/04/04 16:40:59;;;;;;;9.20;5.03;;;6.80;27.60;;;;;;10166843;29;20620;-82
2023/04/04 16:46:02;;;;;;;5.37;2.30;;;6.70;31.50;;;;;;10165937;29;20245;-82
2023/04/04 16:51:05;;;;;;;5.50;3.23;;;6.70;37.70;;;;;;10166594;29;20255;-82
2023/04/04 16:56:07;;;;;;;2.80;1.70;;;6.80;40.70;;;;;;10165814;29;20240;-82
2023/04/04 17:01:14;;;;;;;7.17;2.30;;;6.90;49.40;;;;;;10164702;29;20306;-82
2023/04/04 17:06:16;;;;;;;5.90;3.43;;;6.90;44.70;;;;;;10159547;29;20703;-82
2023/04/04 17:11:19;;;;;;;4.97;2.33;;;6.90;36.80;;;;;;10155351;29;20228;-82
2023/04/04 17:16:22;;;;;;;8.33;2.90;;;6.80;32.90;;;;;;10170650;29;20256;-82
2023/04/04 17:21:25;;;;;;;11.40;4.23;;;6.60;31.30;;;;;;10151564;29;20298;-83
2023/04/04 17:26:27;;;;;;;10.73;4.50;;;6.40;30.90;;;;;;10160959;29;20236;-82
2023/04/04 17:31:31;;;;;;;8.43;4.33;;;6.20;32.10;;;;;;10154347;29;20260;-83
2023/04/04 17:36:34;;;;;;;8.57;3.33;;;6.10;35.00;;;;;;10168554;29;20606;-83
2023/04/04 17:41:36;;;;;;;11.00;4.90;;;6.20;41.30;;;;;;10171223;29;20239;-83
2023/04/04 17:46:39;;;;;;;7.53;4.40;;;6.00;34.50;;;;;;10172554;29;20648;-84
2023/04/04 17:51:42;;;;;;;9.63;3.83;;;5.70;31.00;;;;;;10178084;29;20241;-83
2023/04/04 17:56:45;;;;;;;12.90;5.10;;;5.70;46.60;;;;;;10180034;29;20206;-95
2023/04/04 18:01:48;;;;;;;15.00;6.27;;;6.00;63.20;;;;;;10206176;29;20336;-95
2023/04/04 18:06:51;;;;;;;14.33;5.10;;;6.50;45.40;;;;;;10201840;29;20226;-93
2023/04/04 18:11:54;;;;;;;55.70;22.93;;;6.00;45.00;;;;;;10185855;29;20228;-96
2023/04/04 18:16:57;;;;;;;189.23;55.33;;;5.40;43.20;;;;;;10205359;29;20279;-94
2023/04/04 18:22:00;;;;;;;265.67;76.47;;;5.30;39.60;;;;;;10210890;29;20199;-95
2023/04/04 18:27:02;;;;;;;53.40;19.13;;;4.50;42.50;;;;;;10190043;29;20230;-95
2023/04/04 18:32:05;;;;;;;35.07;15.53;;;4.10;41.60;;;;;;10189259;29;20286;-95
2023/04/04 18:37:08;;;;;;;31.33;13.80;;;3.90;46.30;;;;;;10188274;29;20232;-95
2023/04/04 18:42:11;;;;;;;26.05;11.82;;;3.60;47.40;;;;;;9875495;29;10000596;-94
2023/04/04 18:47:14;;;;;;;32.90;14.07;;;3.30;52.30;;;;;;10169671;29;20422;-95
2023/04/04 18:52:16;;;;;;;40.93;15.73;;;3.20;54.10;;;;;;10188893;29;20266;-95
2023/04/04 18:57:19;;;;;;;25.40;10.37;;;3.10;58.70;;;;;;10175346;29;20350;-95
2023/04/04 19:02:21;;;;;;;42.57;23.50;;;2.90;58.70;;;;;;10139485;29;20221;-84
2023/04/04 19:07:26;;;;;;;32.60;17.17;;;2.60;64.80;;;;;;10168401;29;20835;-84
2023/04/04 19:12:29;;;;;;;22.07;10.90;;;2.40;67.00;;;;;;10171167;29;20318;-84
2023/04/04 19:17:32;;;;;;;18.80;8.70;;;2.40;73.80;;;;;;10169994;29;20228;-84
2023/04/04 19:22:34;;;;;;;14.13;8.07;;;2.70;75.90;;;;;;10171861;29;21037;-87
2023/04/04 19:27:37;;;;;;;17.93;8.90;;;2.90;67.50;;;;;;10171656;29;20296;-85
2023/04/04 19:32:39;;;;;;;13.20;5.67;;;2.80;68.00;;;;;;10169389;29;20316;-85
2023/04/04 19:37:43;;;;;;;21.83;8.70;;;2.90;68.10;;;;;;10167706;29;20245;-84
2023/04/04 19:42:45;;;;;;;11.20;6.00;;;3.00;68.90;;;;;;10168488;29;20755;-83
2023/04/04 19:47:48;;;;;;;34.00;14.60;;;3.10;68.60;;;;;;10169280;29;20217;-84
2023/04/04 19:52:51;;;;;;;28.00;12.70;;;3.00;69.60;;;;;;10170386;29;20273;-83
2023/04/04 19:57:53;;;;;;;31.93;16.00;;;3.00;76.00;;;;;;10170063;29;20241;-83
2023/04/04 20:03:01;;;;;;;22.87;11.80;;;3.30;77.10;;;;;;10169183;29;20212;-85
2023/04/04 20:08:05;;;;;;;25.20;12.00;;;3.40;77.60;;;;;;10184540;29;20210;-84
2023/04/04 20:13:08;;;;;;;14.13;7.30;;;3.60;74.30;;;;;;10169266;29;20285;-84
2023/04/04 20:18:22;;;;;;;14.30;7.00;;;3.60;64.00;;;;;;10168538;29;20204;-83
2023/04/04 20:23:25;;;;;;;10.73;4.50;;;3.80;68.50;;;;;;10165881;29;20244;-82
2023/04/04 20:28:28;;;;;;;11.40;6.10;;;3.90;62.80;;;;;;10166931;29;20242;-82
2023/04/04 20:33:32;;;;;;;9.77;5.40;;;4.20;63.00;;;;;;10166528;29;20295;-82
2023/04/04 20:38:37;;;;;;;13.47;5.17;;;4.00;59.90;;;;;;10165078;29;20772;-82
2023/04/04 20:43:40;;;;;;;6.27;4.07;;;4.10;61.30;;;;;;10167567;29;20635;-82
2023/04/04 20:48:44;;;;;;;6.53;4.33;;;4.10;58.80;;;;;;10176474;29;20311;-82
2023/04/04 20:53:47;;;;;;;6.47;4.23;;;4.00;58.30;;;;;;10174905;29;20257;-82
2023/04/04 20:58:49;;;;;;;7.03;4.70;;;3.80;58.70;;;;;;10172769;29;20258;-83
2023/04/04 21:03:52;;;;;;;6.57;3.70;;;3.40;61.00;;;;;;10175223;29;20783;-82
2023/04/04 21:08:55;;;;;;;8.23;4.67;;;2.70;64.00;;;;;;10175973;29;20244;-82
2023/04/04 21:13:57;;;;;;;9.20;4.20;;;2.80;65.70;;;;;;10174070;29;20279;-82
2023/04/04 21:19:00;;;;;;;6.70;3.60;;;2.80;66.30;;;;;;10176226;29;20236;-82
2023/04/04 21:24:09;;;;;;;7.03;4.13;;;2.70;68.10;;;;;;10171648;29;20664;-82
2023/04/04 21:29:20;;;;;;;6.03;4.13;;;2.20;75.80;;;;;;10156211;29;20978;-82
2023/04/04 21:34:24;;;;;;;5.33;3.23;;;1.80;76.40;;;;;;10169123;29;20891;-82
2023/04/04 21:39:28;;;;;;;5.30;3.30;;;2.20;81.30;;;;;;10172012;29;20232;-83
2023/04/04 21:44:31;;;;;;;6.57;4.23;;;2.50;81.20;;;;;;10162608;29;20271;-83
2023/04/04 21:49:33;;;;;;;15.17;9.17;;;2.70;82.10;;;;;;10164786;29;20231;-83
2023/04/04 21:54:36;;;;;;;18.07;7.20;;;2.90;88.30;;;;;;10169860;29;20645;-83
2023/04/04 21:59:38;;;;;;;10.47;5.57;;;2.60;82.20;;;;;;10166143;29;20279;-82
2023/04/04 22:04:40;;;;;;;14.80;8.50;;;2.70;84.40;;;;;;10168369;29;20692;-82
2023/04/04 22:09:45;;;;;;;19.53;11.40;;;2.90;85.80;;;;;;10170713;29;20288;-82
2023/04/04 22:14:49;;;;;;;26.67;14.00;;;3.00;85.90;;;;;;10169111;29;20273;-82
2023/04/04 22:20:07;;;;;;;23.23;12.87;;;3.20;84.50;;;;;;10168427;29;20229;-82
2023/04/04 22:25:09;;;;;;;19.13;9.73;;;3.10;84.40;;;;;;10170449;29;20252;-82
2023/04/04 22:30:12;;;;;;;19.90;10.83;;;3.30;88.70;;;;;;10170378;29;20262;-82
2023/04/04 22:35:15;;;;;;;19.73;10.27;;;3.20;85.10;;;;;;10166746;29;20311;-82
2023/04/04 22:40:17;;;;;;;21.93;11.03;;;2.80;88.40;;;;;;10168882;29;20498;-82
2023/04/04 22:45:20;;;;;;;23.47;14.27;;;3.00;90.20;;;;;;10171566;29;20277;-82
2023/04/04 22:50:23;;;;;;;18.07;9.10;;;2.80;90.80;;;;;;10156686;29;20245;-82
2023/04/04 22:55:26;;;;;;;22.40;9.67;;;2.50;94.40;;;;;;10171703;29;20293;-82
2023/04/04 23:00:29;;;;;;;29.23;11.87;;;2.20;96.50;;;;;;10168554;29;20280;-82
2023/04/04 23:05:31;;;;;;;19.37;8.20;;;2.00;98.20;;;;;;10167606;29;20965;-82
2023/04/04 23:10:35;;;;;;;23.87;11.73;;;2.00;98.60;;;;;;10167825;29;20258;-82
2023/04/04 23:15:40;;;;;;;17.03;8.30;;;1.60;99.90;;;;;;10185120;29;20961;-82
2023/04/04 23:20:42;;;;;;;23.23;12.53;;;1.60;99.90;;;;;;10168571;29;20237;-82
2023/04/04 23:25:45;;;;;;;23.53;12.37;;;1.20;99.90;;;;;;10165532;29;20367;-82
2023/04/04 23:30:48;;;;;;;24.43;12.00;;;1.00;99.90;;;;;;10165800;29;21083;-82
2023/04/04 23:35:50;;;;;;;31.00;14.83;;;1.30;99.90;;;;;;10167610;29;20300;-82
2023/04/04 23:40:53;;;;;;;38.70;18.43;;;1.50;99.80;;;;;;10168126;29;20758;-83
2023/04/04 23:45:55;;;;;;;39.03;17.47;;;1.50;99.40;;;;;;10166335;29;20615;-83
2023/04/04 23:51:00;;;;;;;42.97;19.23;;;0.80;99.90;;;;;;10166341;29;20286;-83
2023/04/04 23:56:06;;;;;;;42.33;18.90;;;0.90;99.90;;;;;;10163497;29;20284;-82
